Detall de PIREP

Printer-friendly versionPDF version

[2012/12/13 16:03:00]
Flight IATA:CT3401
Pilot Number:012
Company ICAO:CAT
Aircraft Type:C750/F
PAX:4
Departing Airport: BIKF
Destination Airport: LEBL
Alternate Airport:LEPA
Online: VATSIM
Route:ALDAN DCT GOMUP DCT GINGA UN570 BEL UL10 WAL UL151 KIDLI UN859 PUMAL
Flight Level:F490
No Slew and time accel
No pause
Crash detect
Detect pilot in Cockpit between each 30 and 45 minutes
16:03 Zero fuel Weight: 22297 Lbs, Fuel Weight: 8738 Lbs
16:03 VATSIM:BIKF 131530Z 08016KT 9999 FEW028 00/M04 Q1004
16:03 VATSIM:LEBL 131530Z 23012KT 9999 FEW025 13/10 Q1011 NOSIG
16:03 VOICE CATALONIAN
16:03 Parking Brakes off
16:10 Take-off
16:10 Take off Weight: 30928 Lbs
16:10 Wind: 102º @ 014 Knots Heading: 089º
16:10 POS N63º 59´ 06´´ W022º 37´ 39´´
16:10 Gear Up: 158 Knots
16:10 Flaps:3 at 158 Knots
16:10 Flaps:2 at 176 Knots
16:11 Flaps:0 at 186 Knots
16:25 Wind:196º@014 KnotsHeading: 122º Ground Speed: 478 Knots Altitude 44960 ft
16:27 TOC
16:27 Fuel Weight: 7895 Lb
16:40 Wind:260º@021 Knots Heading: 143º Ground Speed: 503 Knots Altitude 48746 ft
16:55 Wind:280º@028 Knots Heading: 146º Ground Speed: 522 Knots Altitude 48661 ft
17:10 Wind:296º@038 Knots Heading: 148º Ground Speed: 531 Knots Altitude 48792 ft
17:25 Wind:295º@038 Knots Heading: 141º Ground Speed: 533 Knots Altitude 48795 ft
17:40 Wind:300º@044 Knots Heading: 143º Ground Speed: 540 Knots Altitude 48576 ft
17:55 Wind:302º@042 Knots Heading: 125º Ground Speed: 543 Knots Altitude 48654 ft
18:10 Wind:299º@039 Knots Heading: 165º Ground Speed: 529 Knots Altitude 48664 ft
18:25 Wind:297º@042 Knots Heading: 168º Ground Speed: 529 Knots Altitude 48667 ft
18:40 Wind:292º@043 Knots Heading: 169º Ground Speed: 527 Knots Altitude 48697 ft
18:55 Wind:289º@041 Knots Heading: 175º Ground Speed: 525 Knots Altitude 48727 ft
19:03 TOD
19:03 Fuel Weight: 5029 Lb
19:10 Wind:277º@048 Knots Heading: 181º Ground Speed: 470 Knots Altitude 31374 ft
19:25 Wind:257º@022 Knots Heading: 152º Ground Speed: 254 Knots Altitude 8884 ft
19:32 Flaps:2 at 178 Knots
19:32 Flaps:3 at 173 Knots
19:34 Flaps:4 at 169 Knots
19:34 Gear Down: 150 Knots
19:35 Flaps:5 at 152 Knots
19:38 TouchDown:Rate -154 ft/min Speed: 116 Knots
19:38 VATSIM:LEBL 131930Z 24005KT 9999 SCT018 12/10 Q1011 NOSIG
19:38 Land
19:38 Wind:242º@005 Knots
19:38 Heading: 246º
19:38 Flight Duration: 03:28
19:38 Landing Weight: 26887 Lbs
19:38 POS N41º 18´ 02´´ E002º 05´ 19´´
19:40 Parking brakes on
19:40 Block to Block Duration: 03:37
19:40 Final Fuel: 4565 Lbls
19:40 Spent Fuel: 4173 Lbls
19:40 Flight Length: 1677 NM
19:40 TOD Land Length: 192 NM

Exportar CSV

Powered by Drupal - Modified by Danger4k